Terminal Aerodrome Forecast
Issued by NWS

Home | Current Version | Previous Version | Text Only | Print | Product List | Glossary On
Versions: 1 2 3 4 5 6 7 8 9 10 11 12 13 14 15 16 17 18 19 20 21 22 23 24 25 26 27 28 29
000
FTUS46 KMTR 211900 AAA
TAFSFO
TAF AMD
KSFO 211913Z 2119/2224 28009KT P6SM BKN006 OVC012
     FM212000 30006KT P6SM SCT006 BKN012
      TEMPO 2121/2201 SCT012 BKN025
     FM220300 29007KT P6SM SCT009 BKN012
     FM220900 30004KT 5SM BR BKN007 OVC012
     FM221800 31005KT P6SM SCT007 OVC015=

USA.gov is the U.S. government's official web portal to all federal, state and local government web resources and services.